Varina, Iowa
Current Conditions -  °F | °C
As of 9:15 PM on Monday 26 Jan 2015 (Local Time) from KSLB Reporting Station
Clear Clear  
Wind Chill: 29°   Ceiling: Unl
Heat Index: 36°   Visibility: 10mi
Dew Point: 34°   Wind: 9mph
Humidity: 93%   Direction: 300°WNW
Pressure: 29.99"   Gusts: NA
Location:  42.66°N, 94.9°W
Report Text: KSLB 270315Z AUTO 30008KT 10SM CLR 02/01 A2999 RMK AO2
Loading
Personal Weather Stations






























Interactive Weather Map New forecast layout! Learn more

10-Day Weather Forecast

Advertisements
Track Severe Weather on mobile